PWSweather.com
Personal Weather Stations
Station Observations
ME1989
Sicily, Barcellona Pozzo Di GottoIT

SicilyBarcellona Pozzo Di GottoIT

Lat: 38.1487398, Lon: 15.2113962

Elevation: 131

Station Type: Peet Bros

Latest ConditionsUpdated 7:40:05 AM GMT+01:01 Saturday, Feb 28, 2015
Currently Today's Max Today's Min Today's Average
Temperature 51.9°F11.1°C 53.4°F11.9°C 50.5°F10.3°C 51.8°F11.0°C
Dew Point 45.9°F7.7°C 48.0°F8.9°C 45.0°F7.2°C 46.3°F7.9°C
Winds 5.7 mph SSW9.2 kmh SSW 7.3 mph SSW11.7 kmh SSW - 5.6 mph 9.0 kmh
Wind Gusts 6.7 mph10.8 kmh 9.6 mph15.4 kmh - -
Humidity 80% 85% 77% 81%
Pressure 29.99 in1015.6 mb 29.99 in1015.6 mb 29.93 in1013.5 mb -
Hour Temp Dew Point Humidity Winds Wind Gusts Pressure Precip Precip Rate Daily Precip Total
07:40 AM 51.9°F11.1°C 45.9°F7.7°C 80% 5.7 mph SSW9.2 kmh SSW 6.7 mph10.8 kmh 29.99 in1015.6 mb 0.00 in0.0 mm 0.00 in/hr0.0 mm/hr 0.00 in0.0 mm
07:30 AM 52.2°F11.2°C 45.9°F7.7°C 79% 4.8 mph S7.7 kmh S 6.0 mph9.7 kmh 29.98 in1015.2 mb 0.00 in0.0 mm 0.00 in/hr0.0 mm/hr 0.00 in0.0 mm
07:20 AM 52.2°F11.2°C 45.6°F7.6°C 78% 4.7 mph SSW7.6 kmh SSW 6.4 mph10.3 kmh 29.98 in1015.2 mb 0.00 in0.0 mm 0.00 in/hr0.0 mm/hr 0.00 in0.0 mm
07:10 AM 52.5°F11.4°C 45.8°F7.7°C 78% 4.9 mph SSW7.9 kmh SSW 5.6 mph9.0 kmh 29.98 in1015.2 mb 0.00 in0.0 mm 0.00 in/hr0.0 mm/hr 0.00 in0.0 mm
07:00 AM 52.1°F11.2°C 45.4°F7.4°C 78% 6.5 mph SSW10.5 kmh SSW 7.9 mph12.7 kmh 29.97 in1014.9 mb 0.00 in0.0 mm 0.00 in/hr0.0 mm/hr 0.00 in0.0 mm
06:50 AM 52.1°F11.2°C 45.4°F7.4°C 78% 5.9 mph SSW9.5 kmh SSW 7.7 mph12.4 kmh 29.97 in1014.9 mb 0.00 in0.0 mm 0.00 in/hr0.0 mm/hr 0.00 in0.0 mm
06:40 AM 52.0°F11.1°C 45.0°F7.2°C 77% 7.0 mph SSW11.3 kmh SSW 9.1 mph14.6 kmh 29.96 in1014.6 mb 0.00 in0.0 mm 0.00 in/hr0.0 mm/hr 0.00 in0.0 mm
06:30 AM 51.9°F11.1°C 45.2°F7.3°C 78% 6.1 mph SSW9.8 kmh SSW 7.9 mph12.7 kmh 29.97 in1014.9 mb 0.00 in0.0 mm 0.00 in/hr0.0 mm/hr 0.00 in0.0 mm
06:20 AM 51.7°F10.9°C 45.7°F7.6°C 80% 6.4 mph SSW10.3 kmh SSW 7.9 mph12.7 kmh 29.96 in1014.6 mb 0.00 in0.0 mm 0.00 in/hr0.0 mm/hr 0.00 in0.0 mm
06:10 AM 51.8°F11.0°C 45.8°F7.7°C 80% 5.6 mph S9.0 kmh S 8.0 mph12.9 kmh 29.96 in1014.6 mb 0.00 in0.0 mm 0.00 in/hr0.0 mm/hr 0.00 in0.0 mm
06:00 AM 52.0°F11.1°C 46.0°F7.8°C 80% 5.5 mph S8.9 kmh S 8.7 mph14.0 kmh 29.96 in1014.6 mb 0.00 in0.0 mm 0.00 in/hr0.0 mm/hr 0.00 in0.0 mm
05:50 AM 51.6°F10.9°C 45.7°F7.6°C 80% 6.5 mph S10.5 kmh S 8.8 mph14.2 kmh 29.96 in1014.6 mb 0.00 in0.0 mm 0.00 in/hr0.0 mm/hr 0.00 in0.0 mm
05:40 AM 51.7°F10.9°C 45.8°F7.7°C 80% 6.2 mph S10.0 kmh S 7.4 mph11.9 kmh 29.95 in1014.2 mb 0.00 in0.0 mm 0.00 in/hr0.0 mm/hr 0.00 in0.0 mm
05:30 AM 51.5°F10.8°C 45.9°F7.7°C 81% 7.1 mph S11.4 kmh S 9.1 mph14.6 kmh 29.95 in1014.2 mb 0.00 in0.0 mm 0.00 in/hr0.0 mm/hr 0.00 in0.0 mm
05:20 AM 51.4°F10.8°C 45.8°F7.7°C 81% 6.6 mph S10.6 kmh S 7.6 mph12.2 kmh 29.95 in1014.2 mb 0.00 in0.0 mm 0.00 in/hr0.0 mm/hr 0.00 in0.0 mm
05:10 AM 52.0°F11.1°C 46.0°F7.8°C 80% 6.5 mph S10.5 kmh S 8.8 mph14.2 kmh 29.95 in1014.2 mb 0.00 in0.0 mm 0.00 in/hr0.0 mm/hr 0.00 in0.0 mm
05:00 AM 52.1°F11.2°C 45.8°F7.7°C 79% 6.3 mph SSW10.1 kmh SSW 7.5 mph12.1 kmh 29.94 in1013.9 mb 0.00 in0.0 mm 0.00 in/hr0.0 mm/hr 0.00 in0.0 mm
04:50 AM 51.7°F10.9°C 45.7°F7.6°C 80% 7.3 mph SSW11.7 kmh SSW 9.3 mph15.0 kmh 29.94 in1013.9 mb 0.00 in0.0 mm 0.00 in/hr0.0 mm/hr 0.00 in0.0 mm
04:40 AM 51.1°F10.6°C 45.5°F7.5°C 81% 7.2 mph SSW11.6 kmh SSW 8.3 mph13.4 kmh 29.94 in1013.9 mb 0.00 in0.0 mm 0.00 in/hr0.0 mm/hr 0.00 in0.0 mm
04:30 AM 51.4°F10.8°C 45.7°F7.6°C 81% 4.0 mph S6.4 kmh S 5.4 mph8.7 kmh 29.94 in1013.9 mb 0.00 in0.0 mm 0.00 in/hr0.0 mm/hr 0.00 in0.0 mm
04:20 AM 51.5°F10.8°C 45.5°F7.5°C 80% 5.4 mph SSW8.7 kmh SSW 6.8 mph10.9 kmh 29.93 in1013.5 mb 0.00 in0.0 mm 0.00 in/hr0.0 mm/hr 0.00 in0.0 mm
04:10 AM 51.0°F10.6°C 45.4°F7.4°C 81% 6.8 mph SSW10.9 kmh SSW 9.1 mph14.6 kmh 29.93 in1013.5 mb 0.00 in0.0 mm 0.00 in/hr0.0 mm/hr 0.00 in0.0 mm
04:00 AM 51.3°F10.7°C 45.6°F7.6°C 81% 6.7 mph SSW10.8 kmh SSW 7.6 mph12.2 kmh 29.93 in1013.5 mb 0.00 in0.0 mm 0.00 in/hr0.0 mm/hr 0.00 in0.0 mm
03:50 AM 51.2°F10.7°C 45.9°F7.7°C 82% 4.8 mph S7.7 kmh S 7.7 mph12.4 kmh 29.93 in1013.5 mb 0.00 in0.0 mm 0.00 in/hr0.0 mm/hr 0.00 in0.0 mm
03:40 AM 50.9°F10.5°C 45.6°F7.6°C 82% 7.2 mph S11.6 kmh S 8.0 mph12.9 kmh 29.93 in1013.5 mb 0.00 in0.0 mm 0.00 in/hr0.0 mm/hr 0.00 in0.0 mm
03:30 AM 50.8°F10.4°C 45.8°F7.7°C 83% 6.6 mph S10.6 kmh S 7.7 mph12.4 kmh 29.93 in1013.5 mb 0.00 in0.0 mm 0.00 in/hr0.0 mm/hr 0.00 in0.0 mm
03:20 AM 51.0°F10.6°C 45.7°F7.6°C 82% 6.4 mph S10.3 kmh S 8.1 mph13.0 kmh 29.93 in1013.5 mb 0.00 in0.0 mm 0.00 in/hr0.0 mm/hr 0.00 in0.0 mm
03:10 AM 50.8°F10.4°C 45.8°F7.7°C 83% 6.7 mph S10.8 kmh S 9.6 mph15.4 kmh 29.93 in1013.5 mb 0.00 in0.0 mm 0.00 in/hr0.0 mm/hr 0.00 in0.0 mm
03:00 AM 50.7°F10.4°C 46.0°F7.8°C 84% 6.2 mph S10.0 kmh S 7.4 mph11.9 kmh 29.93 in1013.5 mb 0.00 in0.0 mm 0.00 in/hr0.0 mm/hr 0.00 in0.0 mm
02:50 AM 50.5°F10.3°C 45.8°F7.7°C 84% 5.4 mph S8.7 kmh S 7.3 mph11.7 kmh 29.93 in1013.5 mb 0.00 in0.0 mm 0.00 in/hr0.0 mm/hr 0.00 in0.0 mm
02:40 AM 50.6°F10.3°C 46.0°F7.8°C 84% 4.5 mph S7.2 kmh S 5.5 mph8.9 kmh 29.93 in1013.5 mb 0.00 in0.0 mm 0.00 in/hr0.0 mm/hr 0.00 in0.0 mm
02:30 AM 50.6°F10.3°C 46.3°F7.9°C 85% 4.1 mph SSW6.6 kmh SSW 4.8 mph7.7 kmh 29.93 in1013.5 mb 0.00 in0.0 mm 0.00 in/hr0.0 mm/hr 0.00 in0.0 mm
02:20 AM 50.6°F10.3°C 46.2°F7.9°C 85% 5.7 mph SSW9.2 kmh SSW 6.8 mph10.9 kmh 29.93 in1013.5 mb 0.00 in0.0 mm 0.00 in/hr0.0 mm/hr 0.00 in0.0 mm
02:10 AM 51.0°F10.6°C 46.6°F8.1°C 85% 4.7 mph S7.6 kmh S 6.0 mph9.7 kmh 29.93 in1013.5 mb 0.00 in0.0 mm 0.00 in/hr0.0 mm/hr 0.00 in0.0 mm
02:00 AM 51.4°F10.8°C 46.8°F8.2°C 84% 4.5 mph S7.2 kmh S 5.8 mph9.3 kmh 29.93 in1013.5 mb 0.00 in0.0 mm 0.00 in/hr0.0 mm/hr 0.00 in0.0 mm
01:50 AM 52.0°F11.1°C 47.3°F8.5°C 84% 3.7 mph S6.0 kmh S 4.6 mph7.4 kmh 29.94 in1013.9 mb 0.00 in0.0 mm 0.00 in/hr0.0 mm/hr 0.00 in0.0 mm
01:40 AM 52.2°F11.2°C 47.2°F8.4°C 83% 4.9 mph S7.9 kmh S 5.5 mph8.9 kmh 29.94 in1013.9 mb 0.00 in0.0 mm 0.00 in/hr0.0 mm/hr 0.00 in0.0 mm
01:30 AM 52.2°F11.2°C 47.2°F8.4°C 83% 5.3 mph SSW8.5 kmh SSW 7.5 mph12.1 kmh 29.94 in1013.9 mb 0.00 in0.0 mm 0.00 in/hr0.0 mm/hr 0.00 in0.0 mm
01:20 AM 52.3°F11.3°C 47.6°F8.7°C 84% 5.7 mph S9.2 kmh S 7.6 mph12.2 kmh 29.93 in1013.5 mb 0.00 in0.0 mm 0.00 in/hr0.0 mm/hr 0.00 in0.0 mm
01:10 AM 52.3°F11.3°C 47.6°F8.7°C 84% 5.6 mph SSW9.0 kmh SSW 7.0 mph11.3 kmh 29.93 in1013.5 mb 0.00 in0.0 mm 0.00 in/hr0.0 mm/hr 0.00 in0.0 mm
01:00 AM 52.5°F11.4°C 47.8°F8.8°C 84% 5.3 mph SSW8.5 kmh SSW 7.3 mph11.7 kmh 29.93 in1013.5 mb 0.00 in0.0 mm 0.00 in/hr0.0 mm/hr 0.00 in0.0 mm
12:50 AM 52.7°F11.5°C 47.6°F8.7°C 83% 5.5 mph SSW8.9 kmh SSW 7.6 mph12.2 kmh 29.93 in1013.5 mb 0.00 in0.0 mm 0.00 in/hr0.0 mm/hr 0.00 in0.0 mm
12:40 AM 52.9°F11.6°C 47.8°F8.8°C 83% 5.4 mph SW8.7 kmh SW 6.0 mph9.7 kmh 29.93 in1013.5 mb 0.00 in0.0 mm 0.00 in/hr0.0 mm/hr 0.00 in0.0 mm
12:30 AM 53.2°F11.8°C 47.8°F8.8°C 82% 4.3 mph WSW6.9 kmh WSW 6.1 mph9.8 kmh 29.93 in1013.5 mb 0.00 in0.0 mm 0.00 in/hr0.0 mm/hr 0.00 in0.0 mm
12:20 AM 53.4°F11.9°C 48.0°F8.9°C 82% 2.2 mph WSW3.5 kmh WSW 3.0 mph4.8 kmh 29.93 in1013.5 mb 0.00 in0.0 mm 0.00 in/hr0.0 mm/hr 0.00 in0.0 mm
12:10 AM 53.3°F11.8°C 47.9°F8.8°C 82% 5.1 mph WSW8.2 kmh WSW 5.7 mph9.2 kmh 29.93 in1013.5 mb 0.00 in0.0 mm 0.00 in/hr0.0 mm/hr 0.00 in0.0 mm
12:00 AM 53.1°F11.7°C 47.7°F8.7°C 82% 3.2 mph SSW5.1 kmh SSW 4.3 mph6.9 kmh 29.93 in1013.5 mb 0.00 in0.0 mm 0.00 in/hr0.0 mm/hr 0.00 in0.0 mm